sensor_id;sensor_type;location;lat;lon;timestamp;temperature;humidity
10441;DHT22;5268;49.346;9.522;2023-07-29T03:05:28;17.80;99.90
10441;DHT22;5268;49.346;9.522;2023-07-29T03:10:31;17.80;99.90
10441;DHT22;5268;49.346;9.522;2023-07-29T03:15:33;17.70;99.90
10441;DHT22;5268;49.346;9.522;2023-07-29T03:20:37;17.70;99.90
10441;DHT22;5268;49.346;9.522;2023-07-29T03:25:39;17.70;99.90
10441;DHT22;5268;49.346;9.522;2023-07-29T03:30:41;17.70;99.90
10441;DHT22;5268;49.346;9.522;2023-07-29T03:35:45;17.70;99.90
10441;DHT22;5268;49.346;9.522;2023-07-29T03:40:50;17.70;99.90
10441;DHT22;5268;49.346;9.522;2023-07-29T03:45:56;17.70;99.90
10441;DHT22;5268;49.346;9.522;2023-07-29T03:50:59;17.60;99.90
10441;DHT22;5268;49.346;9.522;2023-07-29T03:56:01;17.60;99.90
10441;DHT22;5268;49.346;9.522;2023-07-29T04:01:03;17.60;99.90
10441;DHT22;5268;49.346;9.522;2023-07-29T04:06:07;17.60;99.90
10441;DHT22;5268;49.346;9.522;2023-07-29T04:11:09;17.70;99.90
10441;DHT22;5268;49.346;9.522;2023-07-29T04:16:11;17.60;99.90
10441;DHT22;5268;49.346;9.522;2023-07-29T04:21:15;17.60;99.90
10441;DHT22;5268;49.346;9.522;2023-07-29T04:26:17;17.60;99.90
10441;DHT22;5268;49.346;9.522;2023-07-29T04:31:19;17.70;99.90
10441;DHT22;5268;49.346;9.522;2023-07-29T04:36:22;17.70;99.90
10441;DHT22;5268;49.346;9.522;2023-07-29T04:41:24;17.80;99.90
10441;DHT22;5268;49.346;9.522;2023-07-29T04:46:26;17.80;99.90
10441;DHT22;5268;49.346;9.522;2023-07-29T04:51:30;17.80;99.90
10441;DHT22;5268;49.346;9.522;2023-07-29T04:56:35;17.90;99.90
10441;DHT22;5268;49.346;9.522;2023-07-29T05:13:28;17.90;99.90
10441;DHT22;5268;49.346;9.522;2023-07-29T05:18:30;18.00;99.90
10441;DHT22;5268;49.346;9.522;2023-07-29T05:23:32;18.00;99.90
10441;DHT22;5268;49.346;9.522;2023-07-29T05:28:36;18.10;99.90
10441;DHT22;5268;49.346;9.522;2023-07-29T05:33:38;18.00;99.90
10441;DHT22;5268;49.346;9.522;2023-07-29T05:38:40;18.10;99.90
10441;DHT22;5268;49.346;9.522;2023-07-29T05:43:43;18.10;99.90
10441;DHT22;5268;49.346;9.522;2023-07-29T05:48:45;18.10;99.90
10441;DHT22;5268;49.346;9.522;2023-07-29T05:53:47;18.10;99.90
10441;DHT22;5268;49.346;9.522;2023-07-29T05:58:51;18.20;99.90
10441;DHT22;5268;49.346;9.522;2023-07-29T06:03:53;18.20;99.90
10441;DHT22;5268;49.346;9.522;2023-07-29T06:08:55;18.20;99.90
10441;DHT22;5268;49.346;9.522;2023-07-29T06:14:23;18.30;99.90
10441;DHT22;5268;49.346;9.522;2023-07-29T06:19:42;18.40;99.90
10441;DHT22;5268;49.346;9.522;2023-07-29T06:24:44;18.50;99.90
10441;DHT22;5268;49.346;9.522;2023-07-29T09:49:28;21.40;99.90
10441;DHT22;5268;49.346;9.522;2023-07-29T10:56:25;24.10;99.90
10441;DHT22;5268;49.346;9.522;2023-07-29T11:01:39;24.40;99.90
10441;DHT22;5268;49.346;9.522;2023-07-29T11:07:24;24.60;99.90
10441;DHT22;5268;49.346;9.522;2023-07-29T11:12:46;24.90;99.90
10441;DHT22;5268;49.346;9.522;2023-07-29T11:17:55;24.90;99.90
10441;DHT22;5268;49.346;9.522;2023-07-29T11:23:02;24.80;99.90
10441;DHT22;5268;49.346;9.522;2023-07-29T11:28:05;24.70;99.90
10441;DHT22;5268;49.346;9.522;2023-07-29T11:33:29;24.50;99.90
10441;DHT22;5268;49.346;9.522;2023-07-29T12:15:22;24.70;99.90
10441;DHT22;5268;49.346;9.522;2023-07-29T12:20:25;24.90;99.90
10441;DHT22;5268;49.346;9.522;2023-07-29T12:25:30;25.00;99.90
10441;DHT22;5268;49.346;9.522;2023-07-29T12:30:40;25.10;99.90
10441;DHT22;5268;49.346;9.522;2023-07-29T12:36:11;25.10;99.90
10441;DHT22;5268;49.346;9.522;2023-07-29T12:41:54;25.20;99.90
10441;DHT22;5268;49.346;9.522;2023-07-29T12:47:07;25.30;99.90
10441;DHT22;5268;49.346;9.522;2023-07-29T12:52:16;25.20;99.90
10441;DHT22;5268;49.346;9.522;2023-07-29T12:57:27;25.40;99.90
10441;DHT22;5268;49.346;9.522;2023-07-29T13:02:49;25.50;99.90
10441;DHT22;5268;49.346;9.522;2023-07-29T13:07:57;25.60;99.90
10441;DHT22;5268;49.346;9.522;2023-07-29T13:12:59;25.60;99.90
10441;DHT22;5268;49.346;9.522;2023-07-29T13:18:02;25.70;99.90
10441;DHT22;5268;49.346;9.522;2023-07-29T13:23:05;25.80;99.90
10441;DHT22;5268;49.346;9.522;2023-07-29T13:28:08;25.80;99.90
10441;DHT22;5268;49.346;9.522;2023-07-29T13:33:11;25.80;99.90
10441;DHT22;5268;49.346;9.522;2023-07-29T13:38:14;25.80;99.90
10441;DHT22;5268;49.346;9.522;2023-07-29T13:43:16;25.70;99.90
10441;DHT22;5268;49.346;9.522;2023-07-29T13:48:20;25.80;99.90
10441;DHT22;5268;49.346;9.522;2023-07-29T13:53:26;25.80;99.90
10441;DHT22;5268;49.346;9.522;2023-07-29T13:58:29;25.80;99.90
10441;DHT22;5268;49.346;9.522;2023-07-29T14:03:32;25.80;99.90
10441;DHT22;5268;49.346;9.522;2023-07-29T14:08:34;25.90;99.90
10441;DHT22;5268;49.346;9.522;2023-07-29T14:13:36;25.90;99.90
10441;DHT22;5268;49.346;9.522;2023-07-29T14:18:40;26.00;99.90
10441;DHT22;5268;49.346;9.522;2023-07-29T14:23:42;26.00;99.90
10441;DHT22;5268;49.346;9.522;2023-07-29T14:28:46;26.00;99.90
10441;DHT22;5268;49.346;9.522;2023-07-29T14:33:52;26.10;99.90
10441;DHT22;5268;49.346;9.522;2023-07-29T14:38:54;26.30;99.90
10441;DHT22;5268;49.346;9.522;2023-07-29T14:44:10;26.40;99.90
10441;DHT22;5268;49.346;9.522;2023-07-29T14:49:18;26.40;99.90
10441;DHT22;5268;49.346;9.522;2023-07-29T14:54:23;26.40;99.90
10441;DHT22;5268;49.346;9.522;2023-07-29T14:59:31;26.30;99.90
10441;DHT22;5268;49.346;9.522;2023-07-29T15:04:35;26.10;99.90
10441;DHT22;5268;49.346;9.522;2023-07-29T15:09:38;26.10;99.90
10441;DHT22;5268;49.346;9.522;2023-07-29T15:14:43;26.10;99.90
10441;DHT22;5268;49.346;9.522;2023-07-29T15:19:49;26.10;99.90
10441;DHT22;5268;49.346;9.522;2023-07-29T15:24:51;26.10;99.90
10441;DHT22;5268;49.346;9.522;2023-07-29T15:29:55;26.10;99.90
10441;DHT22;5268;49.346;9.522;2023-07-29T15:35:02;26.10;99.90
10441;DHT22;5268;49.346;9.522;2023-07-29T15:40:08;26.20;99.90
10441;DHT22;5268;49.346;9.522;2023-07-29T15:45:23;26.10;99.90
10441;DHT22;5268;49.346;9.522;2023-07-29T15:50:38;26.10;99.90
10441;DHT22;5268;49.346;9.522;2023-07-29T15:55:51;26.00;99.90
10441;DHT22;5268;49.346;9.522;2023-07-29T16:00:56;26.00;99.90
10441;DHT22;5268;49.346;9.522;2023-07-29T16:06:04;25.90;99.90
10441;DHT22;5268;49.346;9.522;2023-07-29T16:11:15;25.80;99.90
10441;DHT22;5268;49.346;9.522;2023-07-29T16:16:17;25.70;99.90
10441;DHT22;5268;49.346;9.522;2023-07-29T16:21:21;25.70;99.90
10441;DHT22;5268;49.346;9.522;2023-07-29T16:26:23;25.70;99.90
10441;DHT22;5268;49.346;9.522;2023-07-29T16:31:25;25.60;99.90
10441;DHT22;5268;49.346;9.522;2023-07-29T16:36:28;25.60;99.90
10441;DHT22;5268;49.346;9.522;2023-07-29T16:41:36;25.50;99.90
10441;DHT22;5268;49.346;9.522;2023-07-29T16:46:48;25.40;99.90
10441;DHT22;5268;49.346;9.522;2023-07-29T16:51:53;25.40;99.90
10441;DHT22;5268;49.346;9.522;2023-07-29T16:56:55;25.30;99.90
10441;DHT22;5268;49.346;9.522;2023-07-29T17:01:57;25.30;99.90
10441;DHT22;5268;49.346;9.522;2023-07-29T17:07:03;25.20;99.90
10441;DHT22;5268;49.346;9.522;2023-07-29T17:12:05;25.10;99.90
10441;DHT22;5268;49.346;9.522;2023-07-29T17:17:08;25.10;99.90
10441;DHT22;5268;49.346;9.522;2023-07-29T20:08:44;21.30;99.90
10441;DHT22;5268;49.346;9.522;2023-07-29T20:13:48;21.20;99.90
10441;DHT22;5268;49.346;9.522;2023-07-29T20:18:50;21.10;99.90
10441;DHT22;5268;49.346;9.522;2023-07-29T20:23:54;21.10;99.90
10441;DHT22;5268;49.346;9.522;2023-07-29T20:28:56;21.10;99.90
10441;DHT22;5268;49.346;9.522;2023-07-29T20:33:58;21.00;99.90
10441;DHT22;5268;49.346;9.522;2023-07-29T20:39:01;21.00;99.90
10441;DHT22;5268;49.346;9.522;2023-07-29T20:44:04;20.90;99.90
10441;DHT22;5268;49.346;9.522;2023-07-29T20:49:08;20.90;99.90
10441;DHT22;5268;49.346;9.522;2023-07-29T20:54:12;20.80;99.90
10441;DHT22;5268;49.346;9.522;2023-07-29T20:59:14;20.70;99.90
10441;DHT22;5268;49.346;9.522;2023-07-29T21:04:16;20.70;99.90
10441;DHT22;5268;49.346;9.522;2023-07-29T21:09:19;20.60;99.90
10441;DHT22;5268;49.346;9.522;2023-07-29T21:14:22;20.60;99.90
10441;DHT22;5268;49.346;9.522;2023-07-29T21:19:24;20.60;99.90
10441;DHT22;5268;49.346;9.522;2023-07-29T21:24:27;20.60;99.90
10441;DHT22;5268;49.346;9.522;2023-07-29T21:29:30;20.50;99.90
10441;DHT22;5268;49.346;9.522;2023-07-29T21:34:32;20.40;99.90
10441;DHT22;5268;49.346;9.522;2023-07-29T21:39:35;20.40;99.90
10441;DHT22;5268;49.346;9.522;2023-07-29T21:44:37;20.30;99.90
10441;DHT22;5268;49.346;9.522;2023-07-29T21:49:39;20.30;99.90
10441;DHT22;5268;49.346;9.522;2023-07-29T21:54:43;20.30;99.90
